Port Gibson, New York
Current Conditions -  °F | °C
As of 4:54 PM on Wednesday 28 Jan 2015 (Local Time) from KROC Reporting Station
Clear Clear  
Wind Chill: 19°   Ceiling: Unl
Heat Index: 25°   Visibility: 10mi
Dew Point:   Wind: 5mph
Humidity: 43%   Direction: 270°W
Pressure: 30.29"   Gusts: NA
Location:  43.03°N, 77.16°W
Report Text: KROC 282154Z 27004KT 10SM CLR M04/M15 A3029 RMK AO2 SLP272 T10391150
Loading
Personal Weather Stations






























Interactive Weather Map New forecast layout! Learn more

10-Day Weather Forecast

Advertisements
Track Severe Weather on mobile